Time;durP1;ratioP1;P1;durP2;ratioP2;P2;SDS_P1;SDS_P2;PMS_P1;PMS_P2;Temp;Humidity;BMP_temperature;BMP_pressure;BME280_temperature;BME280_humidity;BME280_pressure;Samples;Min_cycle;Max_cycle;Signal;HPM_P1;HPM_P2
2023/12/24 00:01:15;;;;;;;0.70;0.17;;;7.50;99.90;;;;;;5024410;28;20413;-58
2023/12/24 00:03:43;;;;;;;1.30;0.50;;;7.50;99.90;;;;;;5029035;28;20037;-59
2023/12/24 00:06:09;;;;;;;1.95;0.88;;;7.40;99.90;;;;;;5028811;28;20037;-60
2023/12/24 00:08:37;;;;;;;2.10;0.90;;;7.30;99.90;;;;;;5030263;28;20128;-57
2023/12/24 00:11:05;;;;;;;2.25;1.00;;;7.10;99.90;;;;;;5031019;28;20061;-57
2023/12/24 00:13:33;;;;;;;2.22;0.82;;;6.70;99.90;;;;;;5024461;28;20068;-57
2023/12/24 00:16:01;;;;;;;1.77;0.80;;;6.50;99.90;;;;;;5030308;28;20074;-58
2023/12/24 00:18:28;;;;;;;4.75;2.03;;;6.30;99.90;;;;;;5025316;28;20445;-57
2023/12/24 00:20:55;;;;;;;4.28;1.52;;;6.20;99.90;;;;;;5029715;28;20041;-56
2023/12/24 00:23:22;;;;;;;4.15;1.45;;;6.00;99.90;;;;;;5031126;28;20045;-60
2023/12/24 00:25:49;;;;;;;7.68;2.05;;;6.00;99.90;;;;;;5027544;28;20060;-59
2023/12/24 00:28:16;;;;;;;3.38;1.35;;;5.80;99.90;;;;;;5027897;28;20129;-60
2023/12/24 00:30:44;;;;;;;1.90;0.93;;;5.80;99.90;;;;;;5028134;28;20051;-60
2023/12/24 00:33:11;;;;;;;4.75;1.45;;;5.70;99.90;;;;;;5030942;28;20048;-60
2023/12/24 00:35:38;;;;;;;3.63;1.60;;;5.50;99.90;;;;;;5029354;28;20087;-59
2023/12/24 00:38:05;;;;;;;2.50;1.30;;;5.40;99.90;;;;;;5028229;28;20076;-59
2023/12/24 00:40:32;;;;;;;3.33;1.45;;;5.20;99.90;;;;;;5011237;28;20073;-59
2023/12/24 00:43:01;;;;;;;2.63;1.30;;;5.00;99.90;;;;;;5029485;28;20462;-59
2023/12/24 00:45:29;;;;;;;7.60;2.10;;;5.00;99.90;;;;;;5007203;28;20063;-61
2023/12/24 00:47:57;;;;;;;4.53;1.77;;;4.90;99.90;;;;;;5026427;28;20095;-59
2023/12/24 00:50:24;;;;;;;;;;;4.80;99.90;;;;;;5032739;28;20053;-59
2023/12/24 00:52:51;;;;;;;2.92;1.30;;;4.70;99.90;;;;;;5007620;28;20468;-62
2023/12/24 00:55:18;;;;;;;;;;;4.70;99.90;;;;;;5010631;28;20092;-59
2023/12/24 00:57:45;;;;;;;2.20;0.70;;;4.60;99.90;;;;;;5006209;28;19972;-62
2023/12/24 01:00:13;;;;;;;1.23;0.60;;;4.60;99.90;;;;;;5027743;28;20137;-58
2023/12/24 01:02:40;;;;;;;1.85;0.60;;;4.50;99.90;;;;;;5008732;28;20494;-60
2023/12/24 01:05:07;;;;;;;1.92;1.15;;;4.40;99.90;;;;;;5011974;28;20483;-58
2023/12/24 01:07:34;;;;;;;3.53;0.30;;;4.50;99.90;;;;;;5031706;28;20401;-58
2023/12/24 01:10:01;;;;;;;1.45;0.43;;;4.40;99.90;;;;;;5013710;28;20037;-59
2023/12/24 01:12:28;;;;;;;1.35;0.60;;;4.40;99.90;;;;;;5007692;28;20046;-54
2023/12/24 01:14:55;;;;;;;0.98;0.57;;;4.40;99.90;;;;;;5007807;28;20045;-54
2023/12/24 01:17:21;;;;;;;3.85;0.70;;;4.40;99.90;;;;;;5009440;28;20443;-56
2023/12/24 01:19:48;;;;;;;3.00;0.52;;;4.40;99.90;;;;;;5008449;28;20069;-58
2023/12/24 01:22:15;;;;;;;1.60;0.70;;;4.30;99.90;;;;;;5029060;28;20405;-59
2023/12/24 01:24:42;;;;;;;2.30;0.60;;;4.30;99.90;;;;;;5013241;28;20053;-59
2023/12/24 01:27:09;;;;;;;3.38;1.13;;;4.30;99.90;;;;;;5005832;28;20037;-54
2023/12/24 01:29:36;;;;;;;0.98;0.57;;;4.20;99.90;;;;;;5009057;28;20048;-55
2023/12/24 01:32:03;;;;;;;1.23;0.55;;;4.20;99.90;;;;;;5022363;28;20044;-57
2023/12/24 01:34:30;;;;;;;4.43;1.00;;;4.20;99.90;;;;;;5012854;28;20095;-54
2023/12/24 01:36:56;;;;;;;2.58;0.90;;;4.10;99.90;;;;;;5014051;28;20042;-57
2023/12/24 01:39:23;;;;;;;2.35;0.80;;;4.10;99.90;;;;;;5026192;28;20113;-58
2023/12/24 01:41:50;;;;;;;3.70;1.77;;;4.10;99.90;;;;;;5026270;28;20044;-54
2023/12/24 01:44:17;;;;;;;1.55;0.70;;;4.10;99.90;;;;;;5030590;28;20042;-57
2023/12/24 01:46:45;;;;;;;0.93;0.50;;;4.10;99.90;;;;;;5031883;28;20065;-57
2023/12/24 01:49:14;;;;;;;1.42;0.50;;;4.10;99.90;;;;;;5029052;28;20093;-55
2023/12/24 01:51:42;;;;;;;2.67;1.10;;;4.10;99.90;;;;;;5013988;28;20112;-54
2023/12/24 01:54:10;;;;;;;1.83;1.10;;;4.10;99.90;;;;;;4992160;28;20482;-54
2023/12/24 01:56:46;;;;;;;2.50;0.85;;;4.20;99.90;;;;;;5014131;28;20386;-58
2023/12/24 01:59:14;;;;;;;2.10;0.77;;;4.20;99.90;;;;;;5013958;28;20049;-56
2023/12/24 02:01:42;;;;;;;1.35;0.60;;;4.20;99.90;;;;;;5014216;28;20067;-54
2023/12/24 02:04:09;;;;;;;0.65;0.40;;;4.20;99.90;;;;;;5013535;28;20552;-55
2023/12/24 02:06:36;;;;;;;0.77;0.40;;;4.20;99.90;;;;;;5013601;28;20135;-55
2023/12/24 02:09:03;;;;;;;0.85;0.40;;;4.30;99.90;;;;;;5013920;28;20425;-58
2023/12/24 02:11:30;;;;;;;1.58;0.55;;;4.30;99.90;;;;;;5024171;28;20393;-56
2023/12/24 02:13:57;;;;;;;3.17;0.95;;;4.30;99.90;;;;;;5018163;28;20466;-58
2023/12/24 02:16:28;;;;;;;1.15;0.47;;;4.30;99.90;;;;;;5019040;28;20033;-54
2023/12/24 02:18:55;;;;;;;0.73;0.30;;;4.30;99.90;;;;;;5023483;28;20036;-55
2023/12/24 02:21:23;;;;;;;1.10;0.40;;;4.40;99.90;;;;;;5005361;28;20037;-54
2023/12/24 02:23:50;;;;;;;1.13;0.40;;;4.40;99.90;;;;;;5026632;28;20042;-54
2023/12/24 02:26:47;;;;;;;1.38;0.50;;;4.50;99.90;;;;;;5013504;28;20095;-54
2023/12/24 02:29:24;;;;;;;2.25;0.80;;;4.50;99.90;;;;;;5013641;28;20045;-56
2023/12/24 02:32:00;;;;;;;2.40;0.90;;;4.60;99.90;;;;;;5009175;28;20080;-54
2023/12/24 02:34:29;;;;;;;1.63;0.60;;;4.60;99.90;;;;;;5031276;28;20375;-54
2023/12/24 02:36:56;;;;;;;0.93;0.50;;;4.60;99.90;;;;;;5021708;28;20041;-54
2023/12/24 02:39:23;;;;;;;4.53;1.13;;;4.50;99.90;;;;;;5013457;28;20060;-59
2023/12/24 02:41:50;;;;;;;1.85;0.57;;;4.50;99.90;;;;;;5025086;28;20038;-55
2023/12/24 02:44:17;;;;;;;0.88;0.45;;;4.40;99.90;;;;;;5013470;28;20056;-54
2023/12/24 02:46:44;;;;;;;0.60;0.40;;;4.30;99.90;;;;;;5031277;28;20616;-59
2023/12/24 02:49:10;;;;;;;1.00;0.50;;;4.30;99.90;;;;;;5030092;28;20038;-56
2023/12/24 02:51:37;;;;;;;1.70;0.40;;;4.30;99.90;;;;;;5013984;28;20041;-54
2023/12/24 02:54:04;;;;;;;0.30;0.20;;;4.40;99.90;;;;;;5030350;28;20037;-54
2023/12/24 02:56:36;;;;;;;1.63;0.50;;;4.30;99.90;;;;;;5022615;28;20128;-54
2023/12/24 02:59:03;;;;;;;0.95;0.50;;;4.30;99.90;;;;;;4997387;28;20049;-55
2023/12/24 03:01:30;;;;;;;1.30;0.50;;;4.30;99.90;;;;;;5012805;28;20136;-57
2023/12/24 03:03:58;;;;;;;0.77;0.40;;;4.40;99.90;;;;;;5015191;28;20065;-56
2023/12/24 03:06:25;;;;;;;0.40;0.30;;;4.30;99.90;;;;;;5016247;28;20045;-54
2023/12/24 03:08:52;;;;;;;0.70;0.38;;;4.40;99.90;;;;;;5035251;28;20045;-55
2023/12/24 03:11:19;;;;;;;0.50;0.40;;;4.40;99.90;;;;;;5035112;28;20033;-54
2023/12/24 03:13:46;;;;;;;0.30;0.30;;;4.30;99.90;;;;;;5014913;28;20045;-57
2023/12/24 03:16:12;;;;;;;0.73;0.40;;;4.40;99.90;;;;;;5034727;28;20045;-54
2023/12/24 03:18:39;;;;;;;0.98;0.40;;;4.40;99.90;;;;;;5017084;28;20041;-58
2023/12/24 03:21:07;;;;;;;0.68;0.57;;;4.40;99.90;;;;;;5016617;28;20436;-57
2023/12/24 03:23:33;;;;;;;;;;;4.50;99.90;;;;;;5017085;28;20041;-54
2023/12/24 03:26:00;;;;;;;2.08;0.80;;;4.70;99.90;;;;;;5009543;28;19929;-55
2023/12/24 03:28:27;;;;;;;1.88;1.00;;;4.80;99.90;;;;;;5024367;28;20051;-55
2023/12/24 03:30:54;;;;;;;1.80;0.70;;;4.80;99.90;;;;;;5016491;28;20045;-54
2023/12/24 03:33:22;;;;;;;0.88;0.52;;;4.90;99.90;;;;;;5033397;28;20041;-56
2023/12/24 03:35:49;;;;;;;3.08;0.63;;;4.90;99.90;;;;;;5034758;28;20670;-57
2023/12/24 03:38:17;;;;;;;1.13;0.60;;;4.90;99.90;;;;;;5033469;28;20045;-54
2023/12/24 03:40:43;;;;;;;1.38;0.70;;;4.90;99.90;;;;;;5012478;28;20544;-56
2023/12/24 03:43:10;;;;;;;2.15;0.73;;;4.80;99.90;;;;;;5031742;28;20128;-58
2023/12/24 03:45:37;;;;;;;5.80;2.15;;;4.80;99.90;;;;;;5015531;28;20030;-54
2023/12/24 03:48:04;;;;;;;3.70;1.23;;;4.80;99.90;;;;;;5032515;28;20029;-55
2023/12/24 03:50:31;;;;;;;;;;;4.70;99.90;;;;;;5035184;28;20061;-57
2023/12/24 03:52:58;;;;;;;2.53;1.42;;;4.70;99.90;;;;;;5016733;28;19927;-57
2023/12/24 03:55:27;;;;;;;4.20;0.60;;;4.70;99.90;;;;;;5015797;28;20499;-57
2023/12/24 03:57:53;;;;;;;0.63;0.50;;;4.60;99.90;;;;;;5014388;28;20038;-56
2023/12/24 04:00:20;;;;;;;0.65;0.45;;;4.50;99.90;;;;;;5010306;28;20079;-57
2023/12/24 04:02:48;;;;;;;2.83;1.17;;;4.40;99.90;;;;;;5016366;28;20069;-57
2023/12/24 04:05:16;;;;;;;1.98;1.08;;;4.40;99.90;;;;;;5033760;28;20037;-55
2023/12/24 04:07:43;;;;;;;2.28;0.90;;;4.30;99.90;;;;;;5034178;28;20163;-58
2023/12/24 04:10:10;;;;;;;3.15;1.10;;;4.30;99.90;;;;;;4999128;28;20136;-58
2023/12/24 04:12:37;;;;;;;2.75;0.90;;;4.30;99.90;;;;;;5016346;28;20494;-55
2023/12/24 04:15:10;;;;;;;;;;;4.30;99.90;;;;;;5015066;28;20620;-58
2023/12/24 04:17:37;;;;;;;2.03;1.00;;;4.30;99.90;;;;;;5028773;28;20373;-57
2023/12/24 04:20:04;;;;;;;;;;;4.20;99.90;;;;;;5030417;28;20037;-58
2023/12/24 04:22:31;;;;;;;1.98;0.90;;;4.30;99.90;;;;;;5015311;28;19967;-58
2023/12/24 04:24:58;;;;;;;;;;;4.20;99.90;;;;;;5016293;28;20100;-56
2023/12/24 04:27:26;;;;;;;3.60;1.23;;;4.30;99.90;;;;;;5010801;28;19991;-54
2023/12/24 04:29:53;;;;;;;2.05;1.13;;;4.30;99.90;;;;;;5026332;28;20288;-59
2023/12/24 04:32:20;;;;;;;1.10;0.90;;;4.30;99.90;;;;;;5015655;28;20513;-55
2023/12/24 04:34:47;;;;;;;2.80;1.33;;;4.30;99.90;;;;;;5007637;28;20048;-58
2023/12/24 04:37:14;;;;;;;4.82;1.80;;;4.30;99.90;;;;;;5026386;28;20054;-58
2023/12/24 04:39:41;;;;;;;3.92;1.90;;;4.30;99.90;;;;;;5018337;28;20045;-58
2023/12/24 04:42:08;;;;;;;3.20;1.92;;;4.20;99.90;;;;;;5033431;28;20037;-58
2023/12/24 04:44:38;;;;;;;3.85;1.65;;;4.20;99.90;;;;;;5029672;28;20029;-57
2023/12/24 04:47:09;;;;;;;3.90;1.73;;;4.20;99.90;;;;;;5015540;28;20088;-58
2023/12/24 04:49:35;;;;;;;2.83;1.73;;;4.20;99.90;;;;;;5022818;28;20041;-55
2023/12/24 04:52:02;;;;;;;4.00;2.10;;;4.20;99.90;;;;;;5015806;28;20050;-59
2023/12/24 04:54:30;;;;;;;;;;;4.20;99.90;;;;;;5014510;28;20590;-57
2023/12/24 04:56:58;;;;;;;4.43;2.10;;;4.20;99.90;;;;;;5016549;28;19921;-57
2023/12/24 04:59:26;;;;;;;2.97;1.70;;;4.20;99.90;;;;;;5015997;28;20514;-59
2023/12/24 05:01:53;;;;;;;4.32;2.17;;;4.20;99.90;;;;;;5014270;28;20042;-56
2023/12/24 05:04:19;;;;;;;3.78;1.75;;;4.10;99.90;;;;;;5009663;28;20060;-56
2023/12/24 05:06:46;;;;;;;5.80;2.60;;;4.10;99.90;;;;;;5014790;28;20069;-55
2023/12/24 05:09:14;;;;;;;5.35;2.92;;;4.10;99.90;;;;;;5014715;28;20141;-54
2023/12/24 05:11:40;;;;;;;4.57;2.50;;;4.10;99.90;;;;;;5015273;28;20390;-58
2023/12/24 05:14:07;;;;;;;4.97;2.58;;;4.00;99.90;;;;;;5031620;28;20116;-54
2023/12/24 05:16:34;;;;;;;7.68;2.20;;;4.00;99.90;;;;;;5032437;28;20113;-57
2023/12/24 05:19:01;;;;;;;4.00;2.22;;;4.00;99.90;;;;;;5032862;28;20431;-57
2023/12/24 05:21:29;;;;;;;4.50;2.20;;;3.90;99.90;;;;;;5032893;28;20049;-59
2023/12/24 05:23:57;;;;;;;5.22;2.55;;;3.90;99.90;;;;;;5014234;28;20461;-58
2023/12/24 05:26:25;;;;;;;5.63;2.55;;;3.90;99.90;;;;;;5013965;28;20046;-56
2023/12/24 05:28:53;;;;;;;7.28;2.85;;;3.90;99.90;;;;;;5014085;28;20052;-56
2023/12/24 05:31:19;;;;;;;5.03;2.20;;;4.00;99.90;;;;;;5029029;28;20056;-58
2023/12/24 05:33:46;;;;;;;3.55;1.88;;;4.00;99.90;;;;;;5032410;28;20124;-55
2023/12/24 05:36:14;;;;;;;5.32;2.40;;;4.00;99.90;;;;;;5031344;28;20060;-55
2023/12/24 05:38:40;;;;;;;;;;;4.00;99.90;;;;;;5029296;28;20045;-59
2023/12/24 05:41:09;;;;;;;5.05;2.17;;;4.00;99.90;;;;;;5022509;28;20010;-57
2023/12/24 05:43:36;;;;;;;6.13;2.50;;;4.00;99.90;;;;;;5030398;28;20037;-58
2023/12/24 05:46:04;;;;;;;5.35;2.33;;;4.00;99.90;;;;;;5023295;28;20775;-58
2023/12/24 05:48:31;;;;;;;5.70;2.38;;;4.00;99.90;;;;;;5031686;28;20042;-56
2023/12/24 05:50:58;;;;;;;5.20;2.42;;;4.00;99.90;;;;;;5022709;28;20037;-59
2023/12/24 05:53:25;;;;;;;3.88;2.33;;;4.00;99.90;;;;;;5031638;28;20080;-59
2023/12/24 05:55:51;;;;;;;6.45;2.95;;;4.00;99.90;;;;;;5031544;28;20087;-58
2023/12/24 05:58:20;;;;;;;4.75;2.55;;;4.00;99.90;;;;;;5027489;28;20070;-56
2023/12/24 06:00:47;;;;;;;4.80;2.53;;;3.90;99.90;;;;;;5024113;28;20117;-58
2023/12/24 06:03:14;;;;;;;4.78;2.13;;;4.00;99.90;;;;;;5031282;28;20049;-58
2023/12/24 06:05:41;;;;;;;4.60;2.25;;;4.00;99.90;;;;;;5030779;28;20033;-59
2023/12/24 06:08:07;;;;;;;4.43;1.50;;;4.00;99.90;;;;;;5031561;28;20065;-59
2023/12/24 06:10:34;;;;;;;4.13;1.20;;;4.00;99.90;;;;;;5026553;28;20043;-57
2023/12/24 06:13:03;;;;;;;1.08;0.55;;;4.10;99.90;;;;;;5031914;28;20048;-56
2023/12/24 06:15:30;;;;;;;1.63;0.95;;;4.20;99.90;;;;;;5031576;28;20124;-57
2023/12/24 06:17:57;;;;;;;;;;;4.20;99.90;;;;;;5024793;28;20051;-54
2023/12/24 06:20:24;;;;;;;1.83;1.30;;;4.30;99.90;;;;;;5025899;28;19982;-57
2023/12/24 06:22:51;;;;;;;1.60;0.88;;;4.30;99.90;;;;;;5031827;28;20033;-58
2023/12/24 06:25:20;;;;;;;1.58;1.00;;;4.30;99.90;;;;;;5030788;28;20378;-57
2023/12/24 06:27:47;;;;;;;2.45;1.00;;;4.30;99.90;;;;;;5031708;28;20433;-56
2023/12/24 06:30:14;;;;;;;1.92;1.10;;;4.30;99.90;;;;;;5023863;28;20472;-54
2023/12/24 06:32:45;;;;;;;3.38;1.02;;;4.30;99.90;;;;;;5022922;28;20060;-58
2023/12/24 06:35:12;;;;;;;1.88;0.88;;;4.40;99.90;;;;;;5031566;28;20049;-55
2023/12/24 06:37:39;;;;;;;2.78;1.13;;;4.40;99.90;;;;;;5030750;28;20410;-58
2023/12/24 06:40:06;;;;;;;;;;;4.30;99.90;;;;;;5027978;28;20041;-58
2023/12/24 06:42:33;;;;;;;4.70;1.17;;;4.30;99.90;;;;;;5029086;28;19921;-57
2023/12/24 06:45:00;;;;;;;2.67;1.10;;;4.30;99.90;;;;;;5031325;28;20041;-56
2023/12/24 06:47:26;;;;;;;3.97;1.90;;;4.40;99.90;;;;;;5030405;28;20063;-58
2023/12/24 06:49:53;;;;;;;5.68;2.38;;;4.30;99.90;;;;;;5027692;28;20056;-58
2023/12/24 06:52:20;;;;;;;5.95;3.03;;;4.10;99.90;;;;;;5031251;28;20060;-55
2023/12/24 06:54:47;;;;;;;5.63;2.50;;;4.00;99.90;;;;;;5031190;28;20080;-55
2023/12/24 06:57:14;;;;;;;;;;;3.80;99.90;;;;;;5030035;28;20049;-58
2023/12/24 06:59:41;;;;;;;5.13;2.30;;;3.70;99.90;;;;;;5031121;28;19921;-59
2023/12/24 07:02:08;;;;;;;4.03;2.38;;;3.70;99.90;;;;;;5030680;28;20425;-58
2023/12/24 07:04:35;;;;;;;4.68;1.75;;;3.70;99.90;;;;;;5029098;28;20046;-55
2023/12/24 07:07:03;;;;;;;3.42;1.40;;;3.70;99.90;;;;;;5025016;28;20125;-55
2023/12/24 07:09:29;;;;;;;2.28;1.15;;;3.70;99.90;;;;;;5031097;28;20046;-55
2023/12/24 07:11:56;;;;;;;1.48;0.82;;;3.90;99.90;;;;;;5031093;28;20044;-59
2023/12/24 07:14:23;;;;;;;3.35;1.35;;;3.90;99.90;;;;;;5024068;28;20050;-58
2023/12/24 07:16:50;;;;;;;3.17;1.92;;;3.90;99.90;;;;;;5030801;28;20398;-58
2023/12/24 07:19:16;;;;;;;3.75;2.15;;;3.80;99.90;;;;;;5030817;28;20594;-58
2023/12/24 07:21:43;;;;;;;3.72;1.88;;;3.70;99.90;;;;;;5022837;28;20459;-58
2023/12/24 07:24:11;;;;;;;5.43;1.88;;;3.60;99.90;;;;;;5028023;28;20280;-57
2023/12/24 07:26:38;;;;;;;;;;;3.60;99.90;;;;;;5031188;28;20458;-56
2023/12/24 07:29:05;;;;;;;5.45;1.95;;;3.70;99.90;;;;;;5024771;28;19972;-58
2023/12/24 07:31:32;;;;;;;5.50;2.22;;;3.70;99.90;;;;;;5030569;28;20558;-57
2023/12/24 07:33:58;;;;;;;4.28;2.30;;;3.70;99.90;;;;;;5030894;28;20491;-58
2023/12/24 07:36:25;;;;;;;11.27;4.22;;;3.70;99.90;;;;;;5023658;28;20058;-57
2023/12/24 07:38:52;;;;;;;7.70;3.85;;;3.70;99.90;;;;;;5031044;28;20052;-58
2023/12/24 07:41:19;;;;;;;5.25;2.33;;;3.80;99.90;;;;;;5030671;28;20037;-57
2023/12/24 07:43:46;;;;;;;7.97;3.20;;;3.70;99.90;;;;;;5031098;28;20046;-57
2023/12/24 07:46:12;;;;;;;8.48;2.60;;;3.80;99.90;;;;;;5025474;28;20129;-59
2023/12/24 07:48:39;;;;;;;9.65;3.05;;;3.80;99.90;;;;;;5030595;28;20056;-59
2023/12/24 07:51:06;;;;;;;5.55;2.53;;;3.80;99.90;;;;;;5032531;28;20041;-57
2023/12/24 07:53:33;;;;;;;6.93;2.83;;;3.90;99.90;;;;;;5028024;28;20042;-58
2023/12/24 07:56:00;;;;;;;3.78;2.47;;;3.90;99.90;;;;;;5034382;28;20041;-55
2023/12/24 07:58:27;;;;;;;6.72;2.72;;;4.00;99.90;;;;;;5032947;28;20037;-57
2023/12/24 08:00:53;;;;;;;7.15;3.25;;;4.10;99.90;;;;;;5034451;28;20638;-55
2023/12/24 08:03:20;;;;;;;17.67;8.32;;;4.10;99.90;;;;;;5034155;28;20048;-57
2023/12/24 08:05:47;;;;;;;6.32;3.97;;;4.20;99.90;;;;;;5032139;28;20045;-57
2023/12/24 08:08:14;;;;;;;5.60;2.92;;;4.30;99.90;;;;;;5033958;28;20090;-59
2023/12/24 08:10:41;;;;;;;4.72;2.53;;;4.30;99.90;;;;;;5034289;28;20060;-59
2023/12/24 08:13:07;;;;;;;6.40;3.20;;;4.30;99.90;;;;;;5032382;28;20068;-58
2023/12/24 08:15:40;;;;;;;8.02;3.60;;;4.40;99.90;;;;;;5033559;28;20111;-57
2023/12/24 08:18:07;;;;;;;11.32;3.92;;;4.40;99.90;;;;;;5033517;28;20033;-59
2023/12/24 08:20:34;;;;;;;6.68;3.03;;;4.40;99.90;;;;;;5033968;28;20077;-56
2023/12/24 08:23:02;;;;;;;5.07;3.00;;;4.50;99.90;;;;;;5025550;28;20568;-57
2023/12/24 08:25:29;;;;;;;12.07;4.93;;;4.60;99.90;;;;;;5025478;28;20124;-55
2023/12/24 08:27:55;;;;;;;41.08;10.85;;;4.60;99.90;;;;;;5022232;28;20130;-57
2023/12/24 08:30:22;;;;;;;12.68;5.78;;;4.70;99.90;;;;;;5025131;28;20128;-59
2023/12/24 08:32:50;;;;;;;13.90;6.72;;;4.80;99.90;;;;;;5029308;28;20073;-56
2023/12/24 08:35:17;;;;;;;10.32;4.18;;;4.90;99.90;;;;;;5024531;28;20056;-57
2023/12/24 08:37:44;;;;;;;4.32;2.40;;;5.00;99.90;;;;;;5029835;28;20444;-59
2023/12/24 08:40:11;;;;;;;5.47;2.85;;;4.90;99.90;;;;;;5028817;28;20050;-58
2023/12/24 08:42:38;;;;;;;5.85;2.97;;;4.80;99.90;;;;;;5024924;28;20045;-58
2023/12/24 08:45:05;;;;;;;7.97;3.60;;;4.80;99.90;;;;;;5031690;28;20044;-59
2023/12/24 08:47:32;;;;;;;6.05;3.03;;;4.70;99.90;;;;;;5033114;28;20049;-55
2023/12/24 08:49:59;;;;;;;12.70;6.10;;;4.70;99.90;;;;;;5033230;28;20041;-57
2023/12/24 08:52:26;;;;;;;5.63;3.30;;;4.70;99.90;;;;;;5032674;28;20405;-57
2023/12/24 08:54:53;;;;;;;6.45;2.60;;;4.70;99.90;;;;;;5025788;28;20045;-54
2023/12/24 08:57:20;;;;;;;5.63;2.65;;;4.80;99.90;;;;;;5032997;28;20592;-56
2023/12/24 08:59:46;;;;;;;4.38;2.40;;;4.80;99.90;;;;;;5033165;28;20052;-60
2023/12/24 09:02:13;;;;;;;4.93;2.92;;;4.90;99.90;;;;;;5026362;28;20121;-57
2023/12/24 09:04:40;;;;;;;6.82;3.13;;;5.00;99.90;;;;;;5027040;28;20081;-55
2023/12/24 09:07:07;;;;;;;13.10;5.18;;;5.10;99.90;;;;;;5032820;28;20038;-56
2023/12/24 09:09:34;;;;;;;4.93;2.67;;;5.20;99.90;;;;;;5024897;28;20040;-55
2023/12/24 09:12:01;;;;;;;5.85;2.58;;;5.30;99.90;;;;;;5032464;28;20041;-55
2023/12/24 09:14:27;;;;;;;4.13;1.73;;;5.40;99.90;;;;;;5032644;28;20136;-54
2023/12/24 09:16:54;;;;;;;3.40;1.42;;;5.50;99.90;;;;;;5029134;28;20042;-54
2023/12/24 09:19:21;;;;;;;4.68;1.92;;;5.70;99.90;;;;;;5029176;28;20057;-55
2023/12/24 09:21:48;;;;;;;5.80;2.72;;;5.80;99.90;;;;;;5032497;28;20042;-54
2023/12/24 09:24:14;;;;;;;5.57;2.17;;;5.80;99.90;;;;;;5014670;28;20049;-54
2023/12/24 09:26:41;;;;;;;4.10;1.98;;;5.80;99.90;;;;;;5025050;28;20056;-54
2023/12/24 09:29:11;;;;;;;3.15;2.10;;;5.80;99.90;;;;;;5032470;28;20044;-54
2023/12/24 09:31:39;;;;;;;4.00;2.30;;;5.80;99.90;;;;;;5032233;28;20053;-57
2023/12/24 09:34:08;;;;;;;6.63;2.83;;;5.80;99.90;;;;;;5032403;28;20049;-54
2023/12/24 09:36:34;;;;;;;8.88;2.78;;;5.70;99.90;;;;;;5026496;28;20562;-54
2023/12/24 09:39:01;;;;;;;4.50;2.40;;;5.60;99.90;;;;;;5028365;28;20042;-54
2023/12/24 09:41:28;;;;;;;4.32;2.38;;;5.60;99.90;;;;;;5029094;28;20056;-54
2023/12/24 09:43:55;;;;;;;3.75;2.25;;;5.80;99.90;;;;;;5031585;28;20375;-55
2023/12/24 09:46:22;;;;;;;5.65;2.90;;;5.90;99.90;;;;;;5031886;28;20049;-58
2023/12/24 09:48:49;;;;;;;3.95;2.30;;;5.90;99.90;;;;;;5028196;28;20052;-57
2023/12/24 09:51:16;;;;;;;5.35;2.53;;;5.80;99.90;;;;;;5032531;28;20076;-56
2023/12/24 09:53:48;;;;;;;;;;;5.80;99.90;;;;;;5032091;28;20049;-54
2023/12/24 09:56:15;;;;;;;7.05;2.63;;;5.70;99.90;;;;;;5029208;28;19925;-57
2023/12/24 09:58:45;;;;;;;5.95;2.75;;;5.70;99.90;;;;;;5029246;28;20052;-58
2023/12/24 10:01:12;;;;;;;8.90;2.92;;;5.70;99.90;;;;;;5032378;28;20140;-54
2023/12/24 10:03:38;;;;;;;6.18;3.45;;;5.70;99.90;;;;;;5031586;28;20045;-54
2023/12/24 10:06:08;;;;;;;7.93;3.72;;;5.70;99.90;;;;;;5031146;28;20042;-58
2023/12/24 10:08:36;;;;;;;8.35;4.03;;;5.70;99.90;;;;;;5031784;28;20045;-55
2023/12/24 10:11:12;;;;;;;14.65;5.85;;;5.70;99.90;;;;;;5032038;28;20533;-59
2023/12/24 10:13:40;;;;;;;9.27;5.03;;;5.70;99.90;;;;;;5029956;28;20085;-56
2023/12/24 10:16:09;;;;;;;5.57;3.50;;;5.80;99.90;;;;;;5031705;28;20049;-58
2023/12/24 10:18:49;;;;;;;6.47;2.78;;;5.80;99.90;;;;;;5031469;28;20513;-55
2023/12/24 10:21:18;;;;;;;7.20;3.20;;;5.90;99.90;;;;;;5027901;28;20120;-58
2023/12/24 10:23:45;;;;;;;7.90;3.15;;;6.00;99.90;;;;;;5030842;28;20046;-58
2023/12/24 10:26:12;;;;;;;6.15;3.05;;;6.10;99.90;;;;;;5028207;28;20399;-59
2023/12/24 10:28:51;;;;;;;10.60;4.47;;;6.20;99.90;;;;;;5028247;28;20099;-58
2023/12/24 10:31:27;;;;;;;8.63;4.07;;;6.20;99.90;;;;;;5025014;28;20052;-56
2023/12/24 10:34:01;;;;;;;10.65;3.33;;;6.30;99.90;;;;;;5028164;28;20033;-57
2023/12/24 10:36:28;;;;;;;7.00;2.65;;;6.40;99.90;;;;;;5029060;28;20078;-58
2023/12/24 10:38:55;;;;;;;5.70;3.13;;;6.50;99.90;;;;;;5030602;28;20045;-61
2023/12/24 10:41:22;;;;;;;6.43;3.47;;;6.60;99.90;;;;;;5031653;28;20045;-57
2023/12/24 10:43:49;;;;;;;7.20;4.22;;;6.60;99.90;;;;;;5023894;28;20041;-59
2023/12/24 10:46:15;;;;;;;8.77;4.13;;;6.70;99.90;;;;;;5029430;28;20045;-57
2023/12/24 10:48:42;;;;;;;9.95;5.07;;;6.80;99.90;;;;;;5020722;28;20046;-60
2023/12/24 10:51:09;;;;;;;4.68;2.97;;;6.70;99.90;;;;;;5023599;28;20044;-60
2023/12/24 10:53:43;;;;;;;11.48;4.68;;;6.90;99.90;;;;;;5019680;28;20052;-58
2023/12/24 10:56:19;;;;;;;6.65;2.80;;;6.90;99.90;;;;;;5009628;28;20041;-55
2023/12/24 10:58:56;;;;;;;6.10;2.70;;;6.90;99.90;;;;;;5023202;28;20521;-58
2023/12/24 11:01:23;;;;;;;5.72;2.88;;;7.00;99.90;;;;;;5026531;28;20053;-59
2023/12/24 11:03:52;;;;;;;6.00;3.42;;;7.00;99.90;;;;;;5021716;28;20072;-57
2023/12/24 11:06:37;;;;;;;6.15;3.20;;;7.10;99.90;;;;;;5030791;28;20045;-64
2023/12/24 11:09:29;;;;;;;7.50;3.97;;;7.10;99.90;;;;;;5023508;28;20124;-57
2023/12/24 11:11:58;;;;;;;10.93;5.85;;;7.10;99.90;;;;;;5025563;28;20050;-59
2023/12/24 11:14:38;;;;;;;14.57;7.40;;;7.10;99.90;;;;;;5027929;28;20072;-55
2023/12/24 11:17:08;;;;;;;10.70;5.75;;;7.10;99.90;;;;;;5025937;28;20037;-59
2023/12/24 11:19:37;;;;;;;9.20;3.60;;;7.20;99.90;;;;;;5027637;28;20047;-58
2023/12/24 11:22:07;;;;;;;10.70;5.32;;;7.30;99.90;;;;;;5031153;28;20044;-56
2023/12/24 11:24:41;;;;;;;21.13;10.00;;;7.30;99.90;;;;;;5030851;28;20061;-59
2023/12/24 11:27:20;;;;;;;8.70;4.03;;;7.40;99.90;;;;;;5025201;28;20038;-58
2023/12/24 11:29:50;;;;;;;9.00;4.18;;;7.60;99.90;;;;;;5033100;28;20072;-58
2023/12/24 11:32:24;;;;;;;12.82;7.03;;;7.60;99.90;;;;;;5028165;28;20112;-59
2023/12/24 11:34:51;;;;;;;16.15;6.05;;;7.70;99.90;;;;;;5033867;28;21070;-57
2023/12/24 11:37:34;;;;;;;13.98;6.00;;;7.70;99.90;;;;;;5032871;28;20051;-56
2023/12/24 11:40:03;;;;;;;7.97;3.25;;;7.70;99.90;;;;;;5024152;28;20405;-58
2023/12/24 11:42:50;;;;;;;4.43;2.67;;;7.60;99.90;;;;;;5034806;28;20478;-58
2023/12/24 11:45:26;;;;;;;5.07;2.88;;;7.60;99.90;;;;;;5034598;28;20096;-59
2023/12/24 11:47:54;;;;;;;7.15;3.78;;;7.60;99.90;;;;;;5029944;28;20045;-57
2023/12/24 11:50:22;;;;;;;9.52;3.78;;;7.70;99.90;;;;;;5034590;28;20133;-58
2023/12/24 11:52:50;;;;;;;9.85;4.47;;;7.70;99.90;;;;;;5026300;28;20053;-59
2023/12/24 11:55:21;;;;;;;8.68;4.95;;;7.60;99.90;;;;;;5031665;28;20041;-58
2023/12/24 11:57:49;;;;;;;10.20;4.65;;;7.60;99.90;;;;;;5032688;28;20051;-60
2023/12/24 12:00:27;;;;;;;8.07;4.18;;;7.80;99.90;;;;;;5034004;28;20038;-57
2023/12/24 12:02:59;;;;;;;8.57;3.83;;;7.90;99.90;;;;;;5034089;28;20041;-58
2023/12/24 12:05:28;;;;;;;7.97;3.83;;;8.00;99.90;;;;;;5025362;28;20049;-59
2023/12/24 12:07:56;;;;;;;5.30;3.40;;;8.10;99.90;;;;;;5033913;28;20041;-60
2023/12/24 12:10:23;;;;;;;34.67;13.40;;;8.10;99.90;;;;;;5034043;28;20108;-59
2023/12/24 12:12:50;;;;;;;27.95;10.32;;;8.10;99.90;;;;;;5030231;28;20087;-59
2023/12/24 12:15:20;;;;;;;7.13;3.47;;;8.10;99.90;;;;;;5028477;28;20046;-59
2023/12/24 12:17:49;;;;;;;6.88;3.58;;;8.00;99.90;;;;;;5029339;28;20654;-58
2023/12/24 12:20:16;;;;;;;6.82;3.00;;;8.00;99.90;;;;;;5011579;28;20045;-58
2023/12/24 12:22:43;;;;;;;5.68;2.60;;;8.00;99.90;;;;;;5026494;28;20501;-59
2023/12/24 12:25:10;;;;;;;6.95;2.83;;;8.00;99.90;;;;;;5032561;28;20469;-59
2023/12/24 12:27:37;;;;;;;5.28;2.80;;;8.00;99.90;;;;;;5028726;28;20426;-58
2023/12/24 12:30:04;;;;;;;4.20;2.45;;;8.10;99.90;;;;;;5026088;28;20037;-58
2023/12/24 12:32:31;;;;;;;5.32;2.53;;;8.10;99.90;;;;;;5033344;28;20513;-59
2023/12/24 12:34:58;;;;;;;4.65;2.40;;;8.10;99.90;;;;;;5021311;28;20100;-58
2023/12/24 12:37:25;;;;;;;5.82;2.42;;;8.20;99.90;;;;;;5015099;28;20057;-57
2023/12/24 12:39:52;;;;;;;3.05;1.83;;;8.20;99.90;;;;;;5023618;28;20398;-58
2023/12/24 12:42:18;;;;;;;4.05;2.03;;;8.10;99.90;;;;;;5030100;28;20128;-59
2023/12/24 12:44:45;;;;;;;3.40;2.30;;;8.10;99.90;;;;;;5029212;28;20088;-60
2023/12/24 12:47:12;;;;;;;5.82;2.78;;;8.00;99.90;;;;;;5028665;28;20136;-55
2023/12/24 12:49:41;;;;;;;6.47;2.22;;;8.10;99.90;;;;;;5030720;28;20045;-56
2023/12/24 12:52:11;;;;;;;4.55;2.40;;;8.10;99.90;;;;;;5030985;28;20120;-57
2023/12/24 12:54:37;;;;;;;4.22;2.50;;;8.10;99.90;;;;;;5026352;28;20045;-59
2023/12/24 12:57:04;;;;;;;4.57;2.50;;;8.10;99.90;;;;;;5031484;28;20048;-58
2023/12/24 12:59:32;;;;;;;4.57;2.17;;;8.10;99.90;;;;;;5031290;28;20450;-60
2023/12/24 13:01:59;;;;;;;4.50;2.40;;;8.10;99.90;;;;;;5029868;28;20414;-59
2023/12/24 13:04:27;;;;;;;7.57;2.92;;;8.00;99.90;;;;;;5026572;28;20049;-59